Giannutri — 9HVX7 — position and weather

sailwx.info

Track history (hours):
 
Tides and Currents Weather Stations Pressure Air Temp Water Temp Dewpoint Dewpoint Depression Visibility Wind Speed Wind Dir Waves Ship Positions

Giannutri

Last reported at 2018-Feb-24 19:58 UTC. Time now 2018-Feb-24 20:14 UTC.
Position N 51°44' W 008°16'.

Length 183 m; draft 7 m.

Type: Ship (hazmat cat A). MMSI: 215637000.

Date/timePositionNaut miles runAvg speedWind from/ knotsBaromVisibWave heightAir tempDewpointWater temp
2018-Feb-24 19:58N 51°44' W 008°16'0 0.1
2018-Feb-24 19:28N 51°44' W 008°16'0 0.1
2018-Feb-24 18:58N 51°44' W 008°16'0 0.0
2018-Feb-24 18:28N 51°44' W 008°16'0 0.0
2018-Feb-24 17:58N 51°44' W 008°16'0 0.1
2018-Feb-24 17:28N 51°44' W 008°16'0 0.1
2018-Feb-24 16:58N 51°44' W 008°16'0 0.0
2018-Feb-24 16:28N 51°44' W 008°16'0 0.0
2018-Feb-24 15:58N 51°44' W 008°16'0 0.0
2018-Feb-24 15:28N 51°44' W 008°16'0 0.0
2018-Feb-24 14:58N 51°44' W 008°16'0 0.0
2018-Feb-24 14:28N 51°44' W 008°16'0 0.0
2018-Feb-24 13:58N 51°44' W 008°16'0 0.1
2018-Feb-24 13:28N 51°44' W 008°16'0 0.1
2018-Feb-24 12:58N 51°44' W 008°16'0 0.0
2018-Feb-24 12:28N 51°44' W 008°16'0 0.0
2018-Feb-24 11:58N 51°44' W 008°16'0 0.0
2018-Feb-24 11:25N 51°44' W 008°16'0 0.5
2018-Feb-24 10:58N 51°44' W 008°16'2 5.0
2018-Feb-24 10:30N 51°42' W 008°14'5 9.6
2018-Feb-24 10:01N 51°37' W 008°12'510.0
2018-Feb-24 09:30N 51°32' W 008°12'5 9.7
2018-Feb-24 09:01N 51°27' W 008°12'161 7.9
2018-Feb-23 12:33N 49°49' W 004°51'2 9.3
2018-Feb-23 12:18N 49°49' W 004°48'4 9.2
2018-Feb-23 11:50N 49°50' W 004°41'3 9.0
2018-Feb-23 11:27N 49°50' W 004°36'5 8.9
2018-Feb-23 10:56N 49°51' W 004°29'4 8.8
2018-Feb-23 10:30N 49°51' W 004°23'24 9.0
2018-Feb-23 07:52N 49°53' W 003°46'4 9.8
2018-Feb-23 07:28N 49°54' W 003°40'510.2
2018-Feb-23 07:00N 49°54' W 003°33'612.8
2018-Feb-23 06:31N 49°55' W 003°23'713.0
2018-Feb-23 06:00N 49°56' W 003°13'714.0
2018-Feb-23 05:30N 49°58' W 003°03'713.5
2018-Feb-23 05:00N 49°60' W 002°52'6910.8
2018-Feb-22 22:36N 50°30' W 001°15'310.5
2018-Feb-22 22:19N 50°31' W 001°11'410.7
2018-Feb-22 21:58N 50°34' W 001°07'511.5
2018-Feb-22 21:30N 50°38' W 001°01'1 1.7
2018-Feb-22 20:59N 50°39' W 001°01'0 0.0
2018-Feb-22 20:29N 50°39' W 001°01'0 0.0
2018-Feb-22 19:59N 50°39' W 001°01'0 0.0
2018-Feb-22 19:29N 50°39' W 001°01'0 0.0
2018-Feb-22 18:59N 50°39' W 001°01'0 0.0
2018-Feb-22 18:29N 50°39' W 001°01'0 0.0
2018-Feb-22 17:59N 50°39' W 001°01'0 0.0
2018-Feb-22 17:29N 50°39' W 001°01'0 0.0
2018-Feb-22 16:59N 50°39' W 001°01'0 0.0
2018-Feb-22 16:29N 50°39' W 001°01'0 0.0
2018-Feb-22 15:59N 50°39' W 001°01'0 0.0
2018-Feb-22 15:26N 50°39' W 001°01'0 0.0
2018-Feb-22 14:56N 50°39' W 001°01'0 0.0
2018-Feb-22 14:29N 50°39' W 001°01'0 0.2
2018-Feb-22 13:59N 50°39' W 001°01'0 0.2
2018-Feb-22 13:29N 50°39' W 001°01'0 0.1
2018-Feb-22 12:59N 50°39' W 001°01'0 0.0
2018-Feb-22 12:29N 50°39' W 001°01'0 0.0
2018-Feb-22 11:59N 50°39' W 001°01'0 0.0
2018-Feb-22 11:29N 50°39' W 001°01'0 0.0
2018-Feb-22 10:59N 50°39' W 001°01'0 0.1
2018-Feb-22 10:29N 50°39' W 001°01'0 0.3
2018-Feb-22 09:53N 50°39' W 001°01'0 0.2
2018-Feb-22 09:23N 50°39' W 001°01'0 0.0
2018-Feb-22 08:59N 50°39' W 001°01'0 0.1
2018-Feb-22 08:29N 50°39' W 001°01'0 0.0
2018-Feb-22 07:59N 50°39' W 001°01'0 0.0
2018-Feb-22 07:26N 50°39' W 001°01'0 0.0
2018-Feb-22 06:59N 50°39' W 001°01'0 0.0
2018-Feb-22 06:29N 50°39' W 001°01'0 0.0
2018-Feb-22 05:59N 50°39' W 001°01'0 0.0
2018-Feb-22 05:29N 50°39' W 001°01'0 0.0
2018-Feb-22 04:50N 50°39' W 001°01'0 0.0
2018-Feb-22 04:29N 50°39' W 001°01'0 0.0
2018-Feb-22 03:59N 50°39' W 001°01'0 0.1
2018-Feb-22 03:29N 50°39' W 001°01'0 0.0
2018-Feb-22 02:53N 50°39' W 001°01'0 0.0
2018-Feb-22 02:29N 50°39' W 001°01'0 0.3
2018-Feb-22 01:38N 50°39' W 001°01'0 0.1
2018-Feb-22 01:29N 50°39' W 001°01'0 0.1
2018-Feb-22 00:59N 50°39' W 001°01'0 0.0
2018-Feb-22 00:29N 50°39' W 001°01'0 0.1
2018-Feb-21 23:59N 50°39' W 001°01'0 0.0
2018-Feb-21 23:29N 50°39' W 001°01'0 0.0
2018-Feb-21 22:59N 50°39' W 001°01'0 0.0
2018-Feb-21 22:29N 50°39' W 001°01'0 0.1
2018-Feb-21 21:59N 50°39' W 001°01'0 0.4
2018-Feb-21 21:23N 50°39' W 001°01'0 0.0
2018-Feb-21 20:59N 50°39' W 001°01'0 0.0
2018-Feb-21 20:29N 50°39' W 001°01'0 0.0
2018-Feb-21 19:59N 50°39' W 001°01'0 0.0
2018-Feb-21 19:29N 50°39' W 001°01'0 0.0
2018-Feb-21 18:59N 50°39' W 001°01'0 0.0
2018-Feb-21 18:29N 50°39' W 001°01'0 0.0
2018-Feb-21 17:59N 50°39' W 001°01'0 0.0
2018-Feb-21 17:29N 50°39' W 001°01'0 0.0
2018-Feb-21 16:59N 50°39' W 001°01'0 0.0
2018-Feb-21 16:29N 50°39' W 001°01'0 0.0
2018-Feb-21 15:59N 50°39' W 001°01'0 0.1
2018-Feb-21 15:29N 50°39' W 001°01'0 0.0
2018-Feb-21 14:59N 50°39' W 001°01'0 0.1
2018-Feb-21 13:41N 50°39' W 001°01'0 0.1
2018-Feb-21 13:29N 50°39' W 001°01'0 0.1
2018-Feb-21 12:59N 50°39' W 001°01'0 0.0
2018-Feb-21 12:29N 50°39' W 001°01'0 0.1
2018-Feb-21 11:59N 50°39' W 001°01'0 0.1
2018-Feb-21 11:29N 50°39' W 001°01'0 0.0
2018-Feb-21 10:59N 50°39' W 001°01'0 0.0
2018-Feb-21 10:29N 50°39' W 001°01'0 0.0
2018-Feb-21 09:59N 50°39' W 001°01'0 0.2
2018-Feb-21 09:29N 50°39' W 001°01'0 0.3
2018-Feb-21 08:56N 50°39' W 001°01'0 0.3
2018-Feb-21 08:29N 50°39' W 001°01'0 0.1
2018-Feb-21 07:59N 50°39' W 001°01'0 0.0
2018-Feb-21 07:29N 50°39' W 001°01'0 0.0
2018-Feb-21 06:59N 50°39' W 001°01'0 0.0
2018-Feb-21 06:29N 50°39' W 001°01'0 0.0
2018-Feb-21 05:59N 50°39' W 001°01'0 0.0
2018-Feb-21 05:29N 50°39' W 001°01'0 0.0
2018-Feb-21 04:59N 50°39' W 001°01'0 0.1
2018-Feb-21 04:29N 50°39' W 001°01'0 0.0
2018-Feb-21 03:59N 50°39' W 001°01'0 0.0
2018-Feb-21 03:29N 50°39' W 001°01'0 0.0
2018-Feb-21 02:59N 50°39' W 001°01'0 0.0
2018-Feb-21 02:29N 50°39' W 001°01'0 0.0
2018-Feb-21 01:59N 50°39' W 001°01'0 0.1
2018-Feb-21 01:29N 50°39' W 001°01'0 0.4
2018-Feb-21 00:59N 50°39' W 001°01'0 0.1
2018-Feb-21 00:29N 50°39' W 001°01'0 0.0
2018-Feb-20 23:59N 50°39' W 001°01'0 0.1
2018-Feb-20 23:26N 50°39' W 001°01'0 0.1
2018-Feb-20 22:59N 50°39' W 001°01'0 0.1
2018-Feb-20 22:29N 50°39' W 001°01'0 0.0
2018-Feb-20 21:59N 50°39' W 001°01'0 0.1
2018-Feb-20 21:29N 50°39' W 001°01'0 0.1
2018-Feb-20 20:59N 50°39' W 001°01'0 0.1
2018-Feb-20 20:17N 50°39' W 001°01'0 0.0
2018-Feb-20 19:53N 50°39' W 001°01'0 0.1
2018-Feb-20 19:29N 50°39' W 001°01'0 0.1
2018-Feb-20 18:59N 50°39' W 001°01'0 0.0
2018-Feb-20 18:29N 50°39' W 001°01'0 0.0
2018-Feb-20 17:59N 50°39' W 001°01'0 0.0
2018-Feb-20 17:02N 50°39' W 001°01'0 0.0
2018-Feb-20 16:59N 50°39' W 001°01'0 0.0
2018-Feb-20 16:29N 50°39' W 001°01'0 0.0
2018-Feb-20 15:59N 50°39' W 001°01'0 0.1
2018-Feb-20 15:29N 50°39' W 001°01'0 0.1
2018-Feb-20 14:05N 50°39' W 001°01'0 0.1
2018-Feb-20 13:59N 50°39' W 001°01'0 0.0
2018-Feb-20 13:29N 50°39' W 001°01'0 0.1
2018-Feb-20 12:44N 50°39' W 001°01'0 0.3
2018-Feb-20 12:29N 50°39' W 001°01'0 0.1
2018-Feb-20 11:59N 50°39' W 001°01'0 0.0
2018-Feb-20 11:29N 50°39' W 001°01'0 0.0
2018-Feb-20 10:59N 50°39' W 001°01'0 0.0
2018-Feb-20 10:29N 50°39' W 001°01'0 0.0
2018-Feb-20 09:59N 50°39' W 001°01'0 0.0
2018-Feb-20 09:29N 50°39' W 001°01'0 0.0
2018-Feb-20 08:59N 50°39' W 001°01'0 0.0
2018-Feb-20 08:29N 50°39' W 001°01'0 0.1
2018-Feb-20 07:59N 50°39' W 001°01'0 0.0
2018-Feb-20 07:29N 50°39' W 001°01'0 0.2
2018-Feb-20 06:56N 50°39' W 001°01'0 0.1
2018-Feb-20 06:29N 50°39' W 001°01'0 0.0
2018-Feb-20 05:59N 50°39' W 001°01'0 0.0
2018-Feb-20 04:23N 50°39' W 001°01'0 0.0
2018-Feb-20 03:59N 50°39' W 001°01'0 0.0
2018-Feb-20 03:29N 50°39' W 001°01'0 0.0
2018-Feb-20 02:59N 50°39' W 001°01'0 0.1
2018-Feb-20 02:29N 50°39' W 001°01'0 0.1
2018-Feb-20 01:44N 50°39' W 001°01'0 0.2
2018-Feb-20 01:29N 50°39' W 001°01'0 0.1
2018-Feb-20 00:59N 50°39' W 001°01'0 0.1
2018-Feb-20 00:29N 50°39' W 001°01'0 0.1
2018-Feb-19 23:59N 50°39' W 001°01'0 0.0
2018-Feb-19 23:29N 50°39' W 001°01'0 0.0
2018-Feb-19 22:59N 50°39' W 001°01'0 0.0
2018-Feb-19 22:29N 50°39' W 001°01'0 0.0
2018-Feb-19 21:56N 50°39' W 001°01'0 0.0
2018-Feb-19 21:23N 50°39' W 001°01'0 0.0
2018-Feb-19 20:56N 50°39' W 001°01'0 0.0
2018-Feb-19 20:26N 50°39' W 001°01'0 0.1
2018-Feb-19 19:59N 50°39' W 001°01'0 0.1
2018-Feb-19 19:29N 50°39' W 001°01'0 0.2
2018-Feb-19 18:59N 50°39' W 001°01'0 0.1
2018-Feb-19 18:29N 50°39' W 001°01'0 0.1
2018-Feb-19 17:59N 50°39' W 001°01'0 0.0
2018-Feb-19 17:17N 50°39' W 001°01'0 0.0
2018-Feb-19 16:59N 50°39' W 001°01'0 0.0
2018-Feb-19 16:29N 50°39' W 001°01'0 0.0
2018-Feb-19 15:59N 50°39' W 001°01'0 0.0
2018-Feb-19 15:29N 50°39' W 001°01'0 0.0
2018-Feb-19 14:59N 50°39' W 001°01'0 0.0
2018-Feb-19 14:29N 50°39' W 001°01'0 0.0
2018-Feb-19 13:53N 50°39' W 001°01'0 0.3
2018-Feb-19 13:26N 50°39' W 001°01'0 0.1
2018-Feb-19 12:59N 50°39' W 001°01'0 0.0
2018-Feb-19 12:29N 50°39' W 001°01'0 0.1
2018-Feb-19 11:59N 50°39' W 001°01'0 0.0
2018-Feb-19 11:29N 50°39' W 001°01'0 0.0
2018-Feb-19 10:59N 50°39' W 001°01'0 0.0
2018-Feb-19 10:29N 50°39' W 001°01'0 0.0
2018-Feb-19 09:59N 50°39' W 001°01'0 0.0
2018-Feb-19 09:29N 50°39' W 001°01'0 0.0
2018-Feb-19 08:59N 50°39' W 001°01'0 0.0
2018-Feb-19 08:29N 50°39' W 001°01'0 0.0
2018-Feb-19 07:59N 50°39' W 001°01'0 0.0
2018-Feb-19 07:29N 50°39' W 001°01'0 0.2
2018-Feb-19 06:41N 50°39' W 001°01'0 0.2
2018-Feb-19 06:29N 50°39' W 001°01'0 0.1
2018-Feb-19 05:59N 50°39' W 001°01'0 0.0
2018-Feb-19 05:29N 50°39' W 001°01'0 0.0
2018-Feb-19 04:59N 50°39' W 001°01'0 0.0
2018-Feb-19 04:29N 50°39' W 001°01'0 0.0
2018-Feb-19 03:59N 50°39' W 001°01'0 0.0
2018-Feb-19 03:29N 50°39' W 001°01'0 0.0
2018-Feb-19 02:59N 50°39' W 001°01'0 0.1
2018-Feb-19 00:35N 50°39' W 001°01'0 0.2
2018-Feb-19 00:29N 50°39' W 001°01'0 0.1
2018-Feb-18 23:59N 50°39' W 001°01'0 0.0
2018-Feb-18 23:29N 50°39' W 001°01'0 0.0
2018-Feb-18 22:59N 50°39' W 001°01'0 0.0
2018-Feb-18 22:29N 50°39' W 001°01'0 0.0
2018-Feb-18 21:59N 50°39' W 001°01'0 0.0
2018-Feb-18 21:29N 50°39' W 001°01'0 0.0
2018-Feb-18 20:59N 50°39' W 001°01'0 0.0
2018-Feb-18 20:29N 50°39' W 001°01'0 0.0
2018-Feb-18 19:59N 50°39' W 001°01'0 0.1
2018-Feb-18 19:29N 50°39' W 001°01'0 0.1
2018-Feb-18 18:59N 50°39' W 001°01'0 0.2
2018-Feb-18 18:05N 50°39' W 001°01'0 0.1
2018-Feb-18 17:59N 50°39' W 001°01'0 0.0
2018-Feb-18 17:29N 50°39' W 001°01'0 0.0
2018-Feb-18 16:59N 50°39' W 001°01'0 0.0
2018-Feb-18 16:29N 50°39' W 001°01'0 0.0
2018-Feb-18 15:59N 50°39' W 001°01'0 0.0
2018-Feb-18 15:29N 50°39' W 001°01'0 0.0
2018-Feb-18 14:05N 50°39' W 001°01'0 0.1
2018-Feb-18 13:59N 50°39' W 001°01'0 0.1
2018-Feb-18 12:11N 50°39' W 001°01'0 0.2
2018-Feb-18 11:59N 50°39' W 001°01'0 0.1
2018-Feb-18 11:29N 50°39' W 001°01'0 0.0
2018-Feb-18 10:59N 50°39' W 001°01'0 0.0
2018-Feb-18 10:29N 50°39' W 001°01'0 0.0
2018-Feb-18 09:59N 50°39' W 001°01'0 0.0
2018-Feb-18 09:29N 50°39' W 001°01'0 0.0
2018-Feb-18 08:59N 50°39' W 001°01'0 0.0
2018-Feb-18 08:29N 50°39' W 001°01'0 0.0
2018-Feb-18 07:59N 50°39' W 001°01'0 0.0
2018-Feb-18 07:29N 50°39' W 001°01'0 0.1
2018-Feb-18 06:59N 50°39' W 001°01'0 0.1
2018-Feb-18 06:29N 50°39' W 001°01'0 0.3
2018-Feb-18 05:53N 50°39' W 001°01'0 0.1
2018-Feb-18 05:29N 50°39' W 001°01'0 0.0
2018-Feb-18 04:59N 50°39' W 001°01'0 0.0
2018-Feb-18 04:26N 50°39' W 001°01'0 0.0
2018-Feb-18 03:59N 50°39' W 001°01'0 0.0
2018-Feb-18 03:29N 50°39' W 001°01'0 0.0
2018-Feb-18 02:59N 50°39' W 001°01'0 0.0
2018-Feb-18 02:23N 50°39' W 001°01'0 0.0
2018-Feb-18 01:59N 50°39' W 001°01'0 0.0
2018-Feb-18 01:26N 50°39' W 001°01'0 0.1
2018-Feb-18 00:47N 50°39' W 001°01'0 0.2
2018-Feb-18 00:23N 50°39' W 001°01'0 0.1
2018-Feb-17 23:59N 50°39' W 001°01'0 0.2
2018-Feb-17 23:29N 50°39' W 001°01'0 0.0
2018-Feb-17 22:59N 50°39' W 001°01'0 0.0
2018-Feb-17 22:29N 50°39' W 001°01'0 0.0
2018-Feb-17 21:59N 50°39' W 001°01'0 0.0
2018-Feb-17 21:29N 50°39' W 001°01'0 0.0
2018-Feb-17 20:59N 50°39' W 001°01'0 0.0
2018-Feb-17 20:29N 50°39' W 001°01'0 0.0
2018-Feb-17 19:59N 50°39' W 001°01'0 0.0
2018-Feb-17 19:29N 50°39' W 001°01'0 0.1
2018-Feb-17 18:59N 50°39' W 001°01'0 0.1
2018-Feb-17 18:29N 50°39' W 001°01'0 0.2
2018-Feb-17 17:53N 50°39' W 001°01'0 0.1
2018-Feb-17 17:26N 50°39' W 001°01'0 0.0
2018-Feb-17 16:59N 50°39' W 001°01'0 0.0
2018-Feb-17 16:29N 50°39' W 001°01'0 0.0
2018-Feb-17 15:59N 50°39' W 001°01'0 0.4
2018-Feb-17 15:30N 50°39' W 001°01'3 6.8
2018-Feb-17 15:01N 50°42' W 000°58'611.7
2018-Feb-17 14:31N 50°45' W 001°06'612.2
2018-Feb-17 14:01N 50°46' W 001°16'4 8.8
2018-Feb-17 13:30N 50°50' W 001°19'1 1.0
2018-Feb-17 12:54N 50°50' W 001°20'0 0.0
2018-Feb-17 12:21N 50°50' W 001°20'0 0.0
2018-Feb-17 11:54N 50°50' W 001°20'0 0.0
2018-Feb-17 11:21N 50°50' W 001°20'0 0.0
2018-Feb-17 10:54N 50°50' W 001°20'0 0.0
2018-Feb-17 10:27N 50°50' W 001°20'0 0.0
2018-Feb-17 09:54N 50°50' W 001°20'0 0.0
2018-Feb-17 09:24N 50°50' W 001°20'0 0.0
2018-Feb-17 08:54N 50°50' W 001°20'0 0.0
2018-Feb-17 08:24N 50°50' W 001°20'0 0.0
2018-Feb-17 07:57N 50°50' W 001°20'0 0.0
2018-Feb-17 07:27N 50°50' W 001°20'0 0.0
2018-Feb-17 06:57N 50°50' W 001°20'0 0.0
2018-Feb-17 06:27N 50°50' W 001°20'0 0.0
2018-Feb-17 06:00N 50°50' W 001°20'0 0.0
2018-Feb-17 05:30N 50°50' W 001°20'0 0.0
2018-Feb-17 05:00N 50°50' W 001°20'0 0.0
2018-Feb-17 04:30N 50°50' W 001°20'0 0.0
2018-Feb-17 03:57N 50°50' W 001°20'0 0.0
2018-Feb-17 03:30N 50°50' W 001°20'0 0.0
2018-Feb-17 03:00N 50°50' W 001°20'0 0.0
2018-Feb-17 02:30N 50°50' W 001°20'0 0.0
2018-Feb-17 01:57N 50°50' W 001°20'0 0.0
2018-Feb-17 01:30N 50°50' W 001°20'0 0.0
2018-Feb-17 01:00N 50°50' W 001°20'0 0.0
2018-Feb-17 00:30N 50°50' W 001°20'0 0.0
2018-Feb-17 00:00N 50°50' W 001°20'0 0.0
2018-Feb-16 23:30N 50°50' W 001°20'0 0.0
2018-Feb-16 23:00N 50°50' W 001°20'0 0.0
2018-Feb-16 22:30N 50°50' W 001°20'0 0.0
2018-Feb-16 21:48N 50°50' W 001°20'0 0.0
2018-Feb-16 21:24N 50°50' W 001°20'0 0.0
2018-Feb-16 20:54N 50°50' W 001°20'0 0.0
2018-Feb-16 20:24N 50°50' W 001°20'0 0.0
2018-Feb-16 19:54N 50°50' W 001°20'0 0.0
2018-Feb-16 19:24N 50°50' W 001°20'0 0.0
2018-Feb-16 18:57N 50°50' W 001°20'0 0.0
2018-Feb-16 18:24N 50°50' W 001°20'0 0.0
2018-Feb-16 17:54N 50°50' W 001°20'0 0.0
2018-Feb-16 17:27N 50°50' W 001°20'0 0.0
2018-Feb-16 16:57N 50°50' W 001°20'0 0.0
2018-Feb-16 16:24N 50°50' W 001°20'0 0.0
2018-Feb-16 15:57N 50°50' W 001°20'0 0.0
2018-Feb-16 15:30N 50°50' W 001°20'0 0.0
2018-Feb-16 15:00N 50°50' W 001°20'0 0.0
2018-Feb-16 14:30N 50°50' W 001°20'0 0.0
2018-Feb-16 14:00N 50°50' W 001°20'0 0.0
2018-Feb-16 13:30N 50°50' W 001°20'0 0.0
2018-Feb-16 13:00N 50°50' W 001°20'0 0.0
2018-Feb-16 12:30N 50°50' W 001°20'0 0.0
2018-Feb-16 12:00N 50°50' W 001°20'0 0.0
2018-Feb-16 11:30N 50°50' W 001°20'0 0.0
2018-Feb-16 11:00N 50°50' W 001°20'0 0.0
2018-Feb-16 10:30N 50°50' W 001°20'0 0.0
2018-Feb-16 10:00N 50°50' W 001°20'0 0.0
2018-Feb-16 09:30N 50°50' W 001°20'0 0.0
2018-Feb-16 09:00N 50°50' W 001°20'0 0.0
2018-Feb-16 08:30N 50°50' W 001°20'0 0.0
2018-Feb-16 08:00N 50°50' W 001°20'0 0.0
2018-Feb-16 07:30N 50°50' W 001°20'0 0.0
2018-Feb-16 07:00N 50°50' W 001°20'0 0.0
2018-Feb-16 06:21N 50°50' W 001°20'0 0.0
2018-Feb-16 05:51N 50°50' W 001°20'0 0.0
2018-Feb-16 05:24N 50°50' W 001°20'0 0.0
2018-Feb-16 04:54N 50°50' W 001°20'0 0.0
2018-Feb-16 04:24N 50°50' W 001°20'0 0.0
2018-Feb-16 03:57N 50°50' W 001°20'0 0.0
2018-Feb-16 03:24N 50°50' W 001°20'0 0.0
2018-Feb-16 02:57N 50°50' W 001°20'0 0.0
2018-Feb-16 02:27N 50°50' W 001°20'0 0.0
2018-Feb-16 01:54N 50°50' W 001°20'0 0.0
2018-Feb-16 01:27N 50°50' W 001°20'0 0.0
2018-Feb-16 00:57N 50°50' W 001°20'0 0.0
2018-Feb-16 00:27N 50°50' W 001°20'0 0.0
2018-Feb-16 00:00N 50°50' W 001°20'0 0.0
2018-Feb-15 23:30N 50°50' W 001°20'0 0.0
2018-Feb-15 23:00N 50°50' W 001°20'0 0.0
2018-Feb-15 22:30N 50°50' W 001°20'0 0.0
2018-Feb-15 21:45N 50°50' W 001°20'0 0.0
2018-Feb-15 21:30N 50°50' W 001°20'0 0.0
2018-Feb-15 21:00N 50°50' W 001°20'0 0.0
2018-Feb-15 20:30N 50°50' W 001°20'0 0.0
2018-Feb-15 20:00N 50°50' W 001°20'0 0.0
2018-Feb-15 19:30N 50°50' W 001°20'0 0.0
2018-Feb-15 19:00N 50°50' W 001°20'0 0.0
2018-Feb-15 18:30N 50°50' W 001°20'0 0.0
2018-Feb-15 18:00N 50°50' W 001°20'0 0.0
2018-Feb-15 17:21N 50°50' W 001°20'0 0.0
2018-Feb-15 17:00N 50°50' W 001°20'0 0.0
2018-Feb-15 16:21N 50°50' W 001°20'0 0.0
2018-Feb-15 15:51N 50°50' W 001°20'0 0.0
2018-Feb-15 15:21N 50°50' W 001°20'0 0.0
2018-Feb-15 14:54N 50°50' W 001°20'0 0.0
2018-Feb-15 14:24N 50°50' W 001°20'0 0.0
2018-Feb-15 13:54N 50°50' W 001°20'0 0.0
2018-Feb-15 13:24N 50°50' W 001°20'0 0.0
2018-Feb-15 12:54N 50°50' W 001°20'0 0.0
2018-Feb-15 12:24N 50°50' W 001°20'0 0.0
2018-Feb-15 11:54N 50°50' W 001°20'0 0.0
2018-Feb-15 11:27N 50°50' W 001°20'0 0.0
2018-Feb-15 10:57N 50°50' W 001°20'0 0.0
2018-Feb-15 10:27N 50°50' W 001°20'0 0.0
2018-Feb-15 10:00N 50°50' W 001°20'0 0.3
2018-Feb-15 09:30N 50°51' W 001°20'2 4.5
2018-Feb-15 09:00N 50°49' W 001°18'3 6.3
2018-Feb-15 08:30N 50°46' W 001°15'611.1
2018-Feb-15 08:00N 50°45' W 001°06'511.0
2018-Feb-15 07:30N 50°43' W 000°58'4 8.5
2018-Feb-15 07:00N 50°39' W 000°54'3 5.5
2018-Feb-15 06:23N 50°39' W 000°59'2 4.9
2018-Feb-15 06:00N 50°38' W 001°02'0 0.0
2018-Feb-15 05:29N 50°38' W 001°02'0 0.1
2018-Feb-15 04:59N 50°38' W 001°02'0 0.0
2018-Feb-14 22:17N 50°38' W 001°02'0 0.1
2018-Feb-14 21:38N 50°38' W 001°02'0 0.1
2018-Feb-14 21:29N 50°38' W 001°02'0 0.0
2018-Feb-14 20:59N 50°38' W 001°02'0 0.1
2018-Feb-14 20:29N 50°38' W 001°02'0 0.0
2018-Feb-14 19:59N 50°38' W 001°02'  
Track history (hours):
 
Tides and Currents Weather Stations Pressure Air Temp Water Temp Dewpoint Dewpoint Depression Visibility Wind Speed Wind Dir Waves Ship Positions

Giannutri

Last reported at 2018-Feb-24 19:58 UTC. Time now 2018-Feb-24 20:14 UTC.
Position N 51°44' W 008°16'.

Length 183 m; draft 7 m.

Type: Ship (hazmat cat A). MMSI: 215637000.

Date/timePositionNaut miles runAvg speedWind from/ knotsBaromVisibWave heightAir tempDewpointWater temp
2018-Feb-24 19:58N 51°44' W 008°16'0 0.1
2018-Feb-24 19:28N 51°44' W 008°16'0 0.1
2018-Feb-24 18:58N 51°44' W 008°16'0 0.0
2018-Feb-24 18:28N 51°44' W 008°16'0 0.0
2018-Feb-24 17:58N 51°44' W 008°16'0 0.1
2018-Feb-24 17:28N 51°44' W 008°16'0 0.1
2018-Feb-24 16:58N 51°44' W 008°16'0 0.0
2018-Feb-24 16:28N 51°44' W 008°16'0 0.0
2018-Feb-24 15:58N 51°44' W 008°16'0 0.0
2018-Feb-24 15:28N 51°44' W 008°16'0 0.0
2018-Feb-24 14:58N 51°44' W 008°16'0 0.0
2018-Feb-24 14:28N 51°44' W 008°16'0 0.0
2018-Feb-24 13:58N 51°44' W 008°16'0 0.1
2018-Feb-24 13:28N 51°44' W 008°16'0 0.1
2018-Feb-24 12:58N 51°44' W 008°16'0 0.0
2018-Feb-24 12:28N 51°44' W 008°16'0 0.0
2018-Feb-24 11:58N 51°44' W 008°16'0 0.0
2018-Feb-24 11:25N 51°44' W 008°16'0 0.5
2018-Feb-24 10:58N 51°44' W 008°16'2 5.0
2018-Feb-24 10:30N 51°42' W 008°14'5 9.6
2018-Feb-24 10:01N 51°37' W 008°12'510.0
2018-Feb-24 09:30N 51°32' W 008°12'5 9.7
2018-Feb-24 09:01N 51°27' W 008°12'161 7.9
2018-Feb-23 12:33N 49°49' W 004°51'2 9.3
2018-Feb-23 12:18N 49°49' W 004°48'4 9.2
2018-Feb-23 11:50N 49°50' W 004°41'3 9.0
2018-Feb-23 11:27N 49°50' W 004°36'5 8.9
2018-Feb-23 10:56N 49°51' W 004°29'4 8.8
2018-Feb-23 10:30N 49°51' W 004°23'24 9.0
2018-Feb-23 07:52N 49°53' W 003°46'4 9.8
2018-Feb-23 07:28N 49°54' W 003°40'510.2
2018-Feb-23 07:00N 49°54' W 003°33'612.8
2018-Feb-23 06:31N 49°55' W 003°23'713.0
2018-Feb-23 06:00N 49°56' W 003°13'714.0
2018-Feb-23 05:30N 49°58' W 003°03'713.5
2018-Feb-23 05:00N 49°60' W 002°52'6910.8
2018-Feb-22 22:36N 50°30' W 001°15'310.5
2018-Feb-22 22:19N 50°31' W 001°11'410.7
2018-Feb-22 21:58N 50°34' W 001°07'511.5
2018-Feb-22 21:30N 50°38' W 001°01'1 1.7
2018-Feb-22 20:59N 50°39' W 001°01'0 0.0
2018-Feb-22 20:29N 50°39' W 001°01'0 0.0
2018-Feb-22 19:59N 50°39' W 001°01'0 0.0
2018-Feb-22 19:29N 50°39' W 001°01'0 0.0
2018-Feb-22 18:59N 50°39' W 001°01'0 0.0
2018-Feb-22 18:29N 50°39' W 001°01'0 0.0
2018-Feb-22 17:59N 50°39' W 001°01'0 0.0
2018-Feb-22 17:29N 50°39' W 001°01'0 0.0
2018-Feb-22 16:59N 50°39' W 001°01'0 0.0
2018-Feb-22 16:29N 50°39' W 001°01'0 0.0
2018-Feb-22 15:59N 50°39' W 001°01'0 0.0
2018-Feb-22 15:26N 50°39' W 001°01'0 0.0
2018-Feb-22 14:56N 50°39' W 001°01'0 0.0
2018-Feb-22 14:29N 50°39' W 001°01'0 0.2
2018-Feb-22 13:59N 50°39' W 001°01'0 0.2
2018-Feb-22 13:29N 50°39' W 001°01'0 0.1
2018-Feb-22 12:59N 50°39' W 001°01'0 0.0
2018-Feb-22 12:29N 50°39' W 001°01'0 0.0
2018-Feb-22 11:59N 50°39' W 001°01'0 0.0
2018-Feb-22 11:29N 50°39' W 001°01'0 0.0
2018-Feb-22 10:59N 50°39' W 001°01'0 0.1
2018-Feb-22 10:29N 50°39' W 001°01'0 0.3
2018-Feb-22 09:53N 50°39' W 001°01'0 0.2
2018-Feb-22 09:23N 50°39' W 001°01'0 0.0
2018-Feb-22 08:59N 50°39' W 001°01'0 0.1
2018-Feb-22 08:29N 50°39' W 001°01'0 0.0
2018-Feb-22 07:59N 50°39' W 001°01'0 0.0
2018-Feb-22 07:26N 50°39' W 001°01'0 0.0
2018-Feb-22 06:59N 50°39' W 001°01'0 0.0
2018-Feb-22 06:29N 50°39' W 001°01'0 0.0
2018-Feb-22 05:59N 50°39' W 001°01'0 0.0
2018-Feb-22 05:29N 50°39' W 001°01'0 0.0
2018-Feb-22 04:50N 50°39' W 001°01'0 0.0
2018-Feb-22 04:29N 50°39' W 001°01'0 0.0
2018-Feb-22 03:59N 50°39' W 001°01'0 0.1
2018-Feb-22 03:29N 50°39' W 001°01'0 0.0
2018-Feb-22 02:53N 50°39' W 001°01'0 0.0
2018-Feb-22 02:29N 50°39' W 001°01'0 0.3
2018-Feb-22 01:38N 50°39' W 001°01'0 0.1
2018-Feb-22 01:29N 50°39' W 001°01'0 0.1
2018-Feb-22 00:59N 50°39' W 001°01'0 0.0
2018-Feb-22 00:29N 50°39' W 001°01'0 0.1
2018-Feb-21 23:59N 50°39' W 001°01'0 0.0
2018-Feb-21 23:29N 50°39' W 001°01'0 0.0
2018-Feb-21 22:59N 50°39' W 001°01'0 0.0
2018-Feb-21 22:29N 50°39' W 001°01'0 0.1
2018-Feb-21 21:59N 50°39' W 001°01'0 0.4
2018-Feb-21 21:23N 50°39' W 001°01'0 0.0
2018-Feb-21 20:59N 50°39' W 001°01'0 0.0
2018-Feb-21 20:29N 50°39' W 001°01'0 0.0
2018-Feb-21 19:59N 50°39' W 001°01'0 0.0
2018-Feb-21 19:29N 50°39' W 001°01'0 0.0
2018-Feb-21 18:59N 50°39' W 001°01'0 0.0
2018-Feb-21 18:29N 50°39' W 001°01'0 0.0
2018-Feb-21 17:59N 50°39' W 001°01'0 0.0
2018-Feb-21 17:29N 50°39' W 001°01'0 0.0
2018-Feb-21 16:59N 50°39' W 001°01'0 0.0
2018-Feb-21 16:29N 50°39' W 001°01'0 0.0
2018-Feb-21 15:59N 50°39' W 001°01'0 0.1
2018-Feb-21 15:29N 50°39' W 001°01'0 0.0
2018-Feb-21 14:59N 50°39' W 001°01'0 0.1
2018-Feb-21 13:41N 50°39' W 001°01'0 0.1
2018-Feb-21 13:29N 50°39' W 001°01'0 0.1
2018-Feb-21 12:59N 50°39' W 001°01'0 0.0
2018-Feb-21 12:29N 50°39' W 001°01'0 0.1
2018-Feb-21 11:59N 50°39' W 001°01'0 0.1
2018-Feb-21 11:29N 50°39' W 001°01'0 0.0
2018-Feb-21 10:59N 50°39' W 001°01'0 0.0
2018-Feb-21 10:29N 50°39' W 001°01'0 0.0
2018-Feb-21 09:59N 50°39' W 001°01'0 0.2
2018-Feb-21 09:29N 50°39' W 001°01'0 0.3
2018-Feb-21 08:56N 50°39' W 001°01'0 0.3
2018-Feb-21 08:29N 50°39' W 001°01'0 0.1
2018-Feb-21 07:59N 50°39' W 001°01'0 0.0
2018-Feb-21 07:29N 50°39' W 001°01'0 0.0
2018-Feb-21 06:59N 50°39' W 001°01'0 0.0
2018-Feb-21 06:29N 50°39' W 001°01'0 0.0
2018-Feb-21 05:59N 50°39' W 001°01'0 0.0
2018-Feb-21 05:29N 50°39' W 001°01'0 0.0
2018-Feb-21 04:59N 50°39' W 001°01'0 0.1
2018-Feb-21 04:29N 50°39' W 001°01'0 0.0
2018-Feb-21 03:59N 50°39' W 001°01'0 0.0
2018-Feb-21 03:29N 50°39' W 001°01'0 0.0
2018-Feb-21 02:59N 50°39' W 001°01'0 0.0
2018-Feb-21 02:29N 50°39' W 001°01'0 0.0
2018-Feb-21 01:59N 50°39' W 001°01'0 0.1
2018-Feb-21 01:29N 50°39' W 001°01'0 0.4
2018-Feb-21 00:59N 50°39' W 001°01'0 0.1
2018-Feb-21 00:29N 50°39' W 001°01'0 0.0
2018-Feb-20 23:59N 50°39' W 001°01'0 0.1
2018-Feb-20 23:26N 50°39' W 001°01'0 0.1
2018-Feb-20 22:59N 50°39' W 001°01'0 0.1
2018-Feb-20 22:29N 50°39' W 001°01'0 0.0
2018-Feb-20 21:59N 50°39' W 001°01'0 0.1
2018-Feb-20 21:29N 50°39' W 001°01'0 0.1
2018-Feb-20 20:59N 50°39' W 001°01'0 0.1
2018-Feb-20 20:17N 50°39' W 001°01'0 0.0
2018-Feb-20 19:53N 50°39' W 001°01'0 0.1
2018-Feb-20 19:29N 50°39' W 001°01'0 0.1
2018-Feb-20 18:59N 50°39' W 001°01'0 0.0
2018-Feb-20 18:29N 50°39' W 001°01'0 0.0
2018-Feb-20 17:59N 50°39' W 001°01'0 0.0
2018-Feb-20 17:02N 50°39' W 001°01'0 0.0
2018-Feb-20 16:59N 50°39' W 001°01'0 0.0
2018-Feb-20 16:29N 50°39' W 001°01'0 0.0
2018-Feb-20 15:59N 50°39' W 001°01'0 0.1
2018-Feb-20 15:29N 50°39' W 001°01'0 0.1
2018-Feb-20 14:05N 50°39' W 001°01'0 0.1
2018-Feb-20 13:59N 50°39' W 001°01'0 0.0
2018-Feb-20 13:29N 50°39' W 001°01'0 0.1
2018-Feb-20 12:44N 50°39' W 001°01'0 0.3
2018-Feb-20 12:29N 50°39' W 001°01'0 0.1
2018-Feb-20 11:59N 50°39' W 001°01'0 0.0
2018-Feb-20 11:29N 50°39' W 001°01'0 0.0
2018-Feb-20 10:59N 50°39' W 001°01'0 0.0
2018-Feb-20 10:29N 50°39' W 001°01'0 0.0
2018-Feb-20 09:59N 50°39' W 001°01'0 0.0
2018-Feb-20 09:29N 50°39' W 001°01'0 0.0
2018-Feb-20 08:59N 50°39' W 001°01'0 0.0
2018-Feb-20 08:29N 50°39' W 001°01'0 0.1
2018-Feb-20 07:59N 50°39' W 001°01'0 0.0
2018-Feb-20 07:29N 50°39' W 001°01'0 0.2
2018-Feb-20 06:56N 50°39' W 001°01'0 0.1
2018-Feb-20 06:29N 50°39' W 001°01'0 0.0
2018-Feb-20 05:59N 50°39' W 001°01'0 0.0
2018-Feb-20 04:23N 50°39' W 001°01'0 0.0
2018-Feb-20 03:59N 50°39' W 001°01'0 0.0
2018-Feb-20 03:29N 50°39' W 001°01'0 0.0
2018-Feb-20 02:59N 50°39' W 001°01'0 0.1
2018-Feb-20 02:29N 50°39' W 001°01'0 0.1
2018-Feb-20 01:44N 50°39' W 001°01'0 0.2
2018-Feb-20 01:29N 50°39' W 001°01'0 0.1
2018-Feb-20 00:59N 50°39' W 001°01'0 0.1
2018-Feb-20 00:29N 50°39' W 001°01'0 0.1
2018-Feb-19 23:59N 50°39' W 001°01'0 0.0
2018-Feb-19 23:29N 50°39' W 001°01'0 0.0
2018-Feb-19 22:59N 50°39' W 001°01'0 0.0
2018-Feb-19 22:29N 50°39' W 001°01'0 0.0
2018-Feb-19 21:56N 50°39' W 001°01'0 0.0
2018-Feb-19 21:23N 50°39' W 001°01'0 0.0
2018-Feb-19 20:56N 50°39' W 001°01'0 0.0
2018-Feb-19 20:26N 50°39' W 001°01'0 0.1
2018-Feb-19 19:59N 50°39' W 001°01'0 0.1
2018-Feb-19 19:29N 50°39' W 001°01'0 0.2
2018-Feb-19 18:59N 50°39' W 001°01'0 0.1
2018-Feb-19 18:29N 50°39' W 001°01'0 0.1
2018-Feb-19 17:59N 50°39' W 001°01'0 0.0
2018-Feb-19 17:17N 50°39' W 001°01'0 0.0
2018-Feb-19 16:59N 50°39' W 001°01'0 0.0
2018-Feb-19 16:29N 50°39' W 001°01'0 0.0
2018-Feb-19 15:59N 50°39' W 001°01'0 0.0
2018-Feb-19 15:29N 50°39' W 001°01'0 0.0
2018-Feb-19 14:59N 50°39' W 001°01'0 0.0
2018-Feb-19 14:29N 50°39' W 001°01'0 0.0
2018-Feb-19 13:53N 50°39' W 001°01'0 0.3
2018-Feb-19 13:26N 50°39' W 001°01'0 0.1
2018-Feb-19 12:59N 50°39' W 001°01'0 0.0
2018-Feb-19 12:29N 50°39' W 001°01'0 0.1
2018-Feb-19 11:59N 50°39' W 001°01'0 0.0
2018-Feb-19 11:29N 50°39' W 001°01'0 0.0
2018-Feb-19 10:59N 50°39' W 001°01'0 0.0
2018-Feb-19 10:29N 50°39' W 001°01'0 0.0
2018-Feb-19 09:59N 50°39' W 001°01'0 0.0
2018-Feb-19 09:29N 50°39' W 001°01'0 0.0
2018-Feb-19 08:59N 50°39' W 001°01'0 0.0
2018-Feb-19 08:29N 50°39' W 001°01'0 0.0
2018-Feb-19 07:59N 50°39' W 001°01'0 0.0
2018-Feb-19 07:29N 50°39' W 001°01'0 0.2
2018-Feb-19 06:41N 50°39' W 001°01'0 0.2
2018-Feb-19 06:29N 50°39' W 001°01'0 0.1
2018-Feb-19 05:59N 50°39' W 001°01'0 0.0
2018-Feb-19 05:29N 50°39' W 001°01'0 0.0
2018-Feb-19 04:59N 50°39' W 001°01'0 0.0
2018-Feb-19 04:29N 50°39' W 001°01'0 0.0
2018-Feb-19 03:59N 50°39' W 001°01'0 0.0
2018-Feb-19 03:29N 50°39' W 001°01'0 0.0
2018-Feb-19 02:59N 50°39' W 001°01'0 0.1
2018-Feb-19 00:35N 50°39' W 001°01'0 0.2
2018-Feb-19 00:29N 50°39' W 001°01'0 0.1
2018-Feb-18 23:59N 50°39' W 001°01'0 0.0
2018-Feb-18 23:29N 50°39' W 001°01'0 0.0
2018-Feb-18 22:59N 50°39' W 001°01'0 0.0
2018-Feb-18 22:29N 50°39' W 001°01'0 0.0
2018-Feb-18 21:59N 50°39' W 001°01'0 0.0
2018-Feb-18 21:29N 50°39' W 001°01'0 0.0
2018-Feb-18 20:59N 50°39' W 001°01'0 0.0
2018-Feb-18 20:29N 50°39' W 001°01'0 0.0
2018-Feb-18 19:59N 50°39' W 001°01'0 0.1
2018-Feb-18 19:29N 50°39' W 001°01'0 0.1
2018-Feb-18 18:59N 50°39' W 001°01'0 0.2
2018-Feb-18 18:05N 50°39' W 001°01'0 0.1
2018-Feb-18 17:59N 50°39' W 001°01'0 0.0
2018-Feb-18 17:29N 50°39' W 001°01'0 0.0
2018-Feb-18 16:59N 50°39' W 001°01'0 0.0
2018-Feb-18 16:29N 50°39' W 001°01'0 0.0
2018-Feb-18 15:59N 50°39' W 001°01'0 0.0
2018-Feb-18 15:29N 50°39' W 001°01'0 0.0
2018-Feb-18 14:05N 50°39' W 001°01'0 0.1
2018-Feb-18 13:59N 50°39' W 001°01'0 0.1
2018-Feb-18 12:11N 50°39' W 001°01'0 0.2
2018-Feb-18 11:59N 50°39' W 001°01'0 0.1
2018-Feb-18 11:29N 50°39' W 001°01'0 0.0
2018-Feb-18 10:59N 50°39' W 001°01'0 0.0
2018-Feb-18 10:29N 50°39' W 001°01'0 0.0
2018-Feb-18 09:59N 50°39' W 001°01'0 0.0
2018-Feb-18 09:29N 50°39' W 001°01'0 0.0
2018-Feb-18 08:59N 50°39' W 001°01'0 0.0
2018-Feb-18 08:29N 50°39' W 001°01'0 0.0
2018-Feb-18 07:59N 50°39' W 001°01'0 0.0
2018-Feb-18 07:29N 50°39' W 001°01'0 0.1
2018-Feb-18 06:59N 50°39' W 001°01'0 0.1
2018-Feb-18 06:29N 50°39' W 001°01'0 0.3
2018-Feb-18 05:53N 50°39' W 001°01'0 0.1
2018-Feb-18 05:29N 50°39' W 001°01'0 0.0
2018-Feb-18 04:59N 50°39' W 001°01'0 0.0
2018-Feb-18 04:26N 50°39' W 001°01'0 0.0
2018-Feb-18 03:59N 50°39' W 001°01'0 0.0
2018-Feb-18 03:29N 50°39' W 001°01'0 0.0
2018-Feb-18 02:59N 50°39' W 001°01'0 0.0
2018-Feb-18 02:23N 50°39' W 001°01'0 0.0
2018-Feb-18 01:59N 50°39' W 001°01'0 0.0
2018-Feb-18 01:26N 50°39' W 001°01'0 0.1
2018-Feb-18 00:47N 50°39' W 001°01'0 0.2
2018-Feb-18 00:23N 50°39' W 001°01'0 0.1
2018-Feb-17 23:59N 50°39' W 001°01'0 0.2
2018-Feb-17 23:29N 50°39' W 001°01'0 0.0
2018-Feb-17 22:59N 50°39' W 001°01'0 0.0
2018-Feb-17 22:29N 50°39' W 001°01'0 0.0
2018-Feb-17 21:59N 50°39' W 001°01'0 0.0
2018-Feb-17 21:29N 50°39' W 001°01'0 0.0
2018-Feb-17 20:59N 50°39' W 001°01'0 0.0
2018-Feb-17 20:29N 50°39' W 001°01'0 0.0
2018-Feb-17 19:59N 50°39' W 001°01'0 0.0
2018-Feb-17 19:29N 50°39' W 001°01'0 0.1
2018-Feb-17 18:59N 50°39' W 001°01'0 0.1
2018-Feb-17 18:29N 50°39' W 001°01'0 0.2
2018-Feb-17 17:53N 50°39' W 001°01'0 0.1
2018-Feb-17 17:26N 50°39' W 001°01'0 0.0
2018-Feb-17 16:59N 50°39' W 001°01'0 0.0
2018-Feb-17 16:29N 50°39' W 001°01'0 0.0
2018-Feb-17 15:59N 50°39' W 001°01'0 0.4
2018-Feb-17 15:30N 50°39' W 001°01'3 6.8
2018-Feb-17 15:01N 50°42' W 000°58'611.7
2018-Feb-17 14:31N 50°45' W 001°06'612.2
2018-Feb-17 14:01N 50°46' W 001°16'4 8.8
2018-Feb-17 13:30N 50°50' W 001°19'1 1.0
2018-Feb-17 12:54N 50°50' W 001°20'0 0.0
2018-Feb-17 12:21N 50°50' W 001°20'0 0.0
2018-Feb-17 11:54N 50°50' W 001°20'0 0.0
2018-Feb-17 11:21N 50°50' W 001°20'0 0.0
2018-Feb-17 10:54N 50°50' W 001°20'0 0.0
2018-Feb-17 10:27N 50°50' W 001°20'0 0.0
2018-Feb-17 09:54N 50°50' W 001°20'0 0.0
2018-Feb-17 09:24N 50°50' W 001°20'0 0.0
2018-Feb-17 08:54N 50°50' W 001°20'0 0.0
2018-Feb-17 08:24N 50°50' W 001°20'0 0.0
2018-Feb-17 07:57N 50°50' W 001°20'0 0.0
2018-Feb-17 07:27N 50°50' W 001°20'0 0.0
2018-Feb-17 06:57N 50°50' W 001°20'0 0.0
2018-Feb-17 06:27N 50°50' W 001°20'0 0.0
2018-Feb-17 06:00N 50°50' W 001°20'0 0.0
2018-Feb-17 05:30N 50°50' W 001°20'0 0.0
2018-Feb-17 05:00N 50°50' W 001°20'0 0.0
2018-Feb-17 04:30N 50°50' W 001°20'0 0.0
2018-Feb-17 03:57N 50°50' W 001°20'0 0.0
2018-Feb-17 03:30N 50°50' W 001°20'0 0.0
2018-Feb-17 03:00N 50°50' W 001°20'0 0.0
2018-Feb-17 02:30N 50°50' W 001°20'0 0.0
2018-Feb-17 01:57N 50°50' W 001°20'0 0.0
2018-Feb-17 01:30N 50°50' W 001°20'0 0.0
2018-Feb-17 01:00N 50°50' W 001°20'0 0.0
2018-Feb-17 00:30N 50°50' W 001°20'0 0.0
2018-Feb-17 00:00N 50°50' W 001°20'0 0.0
2018-Feb-16 23:30N 50°50' W 001°20'0 0.0
2018-Feb-16 23:00N 50°50' W 001°20'0 0.0
2018-Feb-16 22:30N 50°50' W 001°20'0 0.0
2018-Feb-16 21:48N 50°50' W 001°20'0 0.0
2018-Feb-16 21:24N 50°50' W 001°20'0 0.0
2018-Feb-16 20:54N 50°50' W 001°20'0 0.0
2018-Feb-16 20:24N 50°50' W 001°20'0 0.0
2018-Feb-16 19:54N 50°50' W 001°20'0 0.0
2018-Feb-16 19:24N 50°50' W 001°20'0 0.0
2018-Feb-16 18:57N 50°50' W 001°20'0 0.0
2018-Feb-16 18:24N 50°50' W 001°20'0 0.0
2018-Feb-16 17:54N 50°50' W 001°20'0 0.0
2018-Feb-16 17:27N 50°50' W 001°20'0 0.0
2018-Feb-16 16:57N 50°50' W 001°20'0 0.0
2018-Feb-16 16:24N 50°50' W 001°20'0 0.0
2018-Feb-16 15:57N 50°50' W 001°20'0 0.0
2018-Feb-16 15:30N 50°50' W 001°20'0 0.0
2018-Feb-16 15:00N 50°50' W 001°20'0 0.0
2018-Feb-16 14:30N 50°50' W 001°20'0 0.0
2018-Feb-16 14:00N 50°50' W 001°20'0 0.0
2018-Feb-16 13:30N 50°50' W 001°20'0 0.0
2018-Feb-16 13:00N 50°50' W 001°20'0 0.0
2018-Feb-16 12:30N 50°50' W 001°20'0 0.0
2018-Feb-16 12:00N 50°50' W 001°20'0 0.0
2018-Feb-16 11:30N 50°50' W 001°20'0 0.0
2018-Feb-16 11:00N 50°50' W 001°20'0 0.0
2018-Feb-16 10:30N 50°50' W 001°20'0 0.0
2018-Feb-16 10:00N 50°50' W 001°20'0 0.0
2018-Feb-16 09:30N 50°50' W 001°20'0 0.0
2018-Feb-16 09:00N 50°50' W 001°20'0 0.0
2018-Feb-16 08:30N 50°50' W 001°20'0 0.0
2018-Feb-16 08:00N 50°50' W 001°20'0 0.0
2018-Feb-16 07:30N 50°50' W 001°20'0 0.0
2018-Feb-16 07:00N 50°50' W 001°20'0 0.0
2018-Feb-16 06:21N 50°50' W 001°20'0 0.0
2018-Feb-16 05:51N 50°50' W 001°20'0 0.0
2018-Feb-16 05:24N 50°50' W 001°20'0 0.0
2018-Feb-16 04:54N 50°50' W 001°20'0 0.0
2018-Feb-16 04:24N 50°50' W 001°20'0 0.0
2018-Feb-16 03:57N 50°50' W 001°20'0 0.0
2018-Feb-16 03:24N 50°50' W 001°20'0 0.0
2018-Feb-16 02:57N 50°50' W 001°20'0 0.0
2018-Feb-16 02:27N 50°50' W 001°20'0 0.0
2018-Feb-16 01:54N 50°50' W 001°20'0 0.0
2018-Feb-16 01:27N 50°50' W 001°20'0 0.0
2018-Feb-16 00:57N 50°50' W 001°20'0 0.0
2018-Feb-16 00:27N 50°50' W 001°20'0 0.0
2018-Feb-16 00:00N 50°50' W 001°20'0 0.0
2018-Feb-15 23:30N 50°50' W 001°20'0 0.0
2018-Feb-15 23:00N 50°50' W 001°20'0 0.0
2018-Feb-15 22:30N 50°50' W 001°20'0 0.0
2018-Feb-15 21:45N 50°50' W 001°20'0 0.0
2018-Feb-15 21:30N 50°50' W 001°20'0 0.0
2018-Feb-15 21:00N 50°50' W 001°20'0 0.0
2018-Feb-15 20:30N 50°50' W 001°20'0 0.0
2018-Feb-15 20:00N 50°50' W 001°20'0 0.0
2018-Feb-15 19:30N 50°50' W 001°20'0 0.0
2018-Feb-15 19:00N 50°50' W 001°20'0 0.0
2018-Feb-15 18:30N 50°50' W 001°20'0 0.0
2018-Feb-15 18:00N 50°50' W 001°20'0 0.0
2018-Feb-15 17:21N 50°50' W 001°20'0 0.0
2018-Feb-15 17:00N 50°50' W 001°20'0 0.0
2018-Feb-15 16:21N 50°50' W 001°20'0 0.0
2018-Feb-15 15:51N 50°50' W 001°20'0 0.0
2018-Feb-15 15:21N 50°50' W 001°20'0 0.0
2018-Feb-15 14:54N 50°50' W 001°20'0 0.0
2018-Feb-15 14:24N 50°50' W 001°20'0 0.0
2018-Feb-15 13:54N 50°50' W 001°20'0 0.0
2018-Feb-15 13:24N 50°50' W 001°20'0 0.0
2018-Feb-15 12:54N 50°50' W 001°20'0 0.0
2018-Feb-15 12:24N 50°50' W 001°20'0 0.0
2018-Feb-15 11:54N 50°50' W 001°20'0 0.0
2018-Feb-15 11:27N 50°50' W 001°20'0 0.0
2018-Feb-15 10:57N 50°50' W 001°20'0 0.0
2018-Feb-15 10:27N 50°50' W 001°20'0 0.0
2018-Feb-15 10:00N 50°50' W 001°20'0 0.3
2018-Feb-15 09:30N 50°51' W 001°20'2 4.5
2018-Feb-15 09:00N 50°49' W 001°18'3 6.3
2018-Feb-15 08:30N 50°46' W 001°15'611.1
2018-Feb-15 08:00N 50°45' W 001°06'511.0
2018-Feb-15 07:30N 50°43' W 000°58'4 8.5
2018-Feb-15 07:00N 50°39' W 000°54'3 5.5
2018-Feb-15 06:23N 50°39' W 000°59'2 4.9
2018-Feb-15 06:00N 50°38' W 001°02'0 0.0
2018-Feb-15 05:29N 50°38' W 001°02'0 0.1
2018-Feb-15 04:59N 50°38' W 001°02'0 0.0
2018-Feb-14 22:17N 50°38' W 001°02'0 0.1
2018-Feb-14 21:38N 50°38' W 001°02'0 0.1
2018-Feb-14 21:29N 50°38' W 001°02'0 0.0
2018-Feb-14 20:59N 50°38' W 001°02'0 0.1
2018-Feb-14 20:29N 50°38' W 001°02'0 0.0
2018-Feb-14 19:59N 50°38' W 001°02'  

Dump ship's entire track history